createdAt,value
2022-07-31T00:00:10.872Z,67254.19
2022-07-31T00:05:41.792Z,67314.69
2022-07-31T00:10:45.843Z,67345.03
2022-07-31T00:15:51.048Z,67365.50
2022-07-31T00:20:54.778Z,67307.81
2022-07-31T00:25:58.996Z,67371.47
2022-07-31T00:31:04.172Z,67394.16
2022-07-31T00:36:08.346Z,67287.63
2022-07-31T00:41:12.136Z,67260.16
2022-07-31T00:46:17.193Z,67269.34
2022-07-31T00:51:21.531Z,67191.00
2022-07-31T00:56:25.857Z,67243.34
2022-07-31T01:01:31.842Z,67207.69
2022-07-31T01:06:39.712Z,67186.66
2022-07-31T01:11:50.871Z,67189.41
2022-07-31T01:16:58.392Z,67195.88
2022-07-31T01:22:32.914Z,67191.69
2022-07-31T01:27:53.441Z,67183.44
2022-07-31T01:33:06.533Z,67211.53
2022-07-31T01:38:12.774Z,67276.41
2022-07-31T01:43:23.171Z,67334.13
2022-07-31T01:48:29.158Z,67342.88
2022-07-31T01:53:35.225Z,67359.09
2022-07-31T01:58:41.230Z,67396.84
2022-07-31T02:03:56.966Z,67377.94
2022-07-31T02:09:06.375Z,67319.63
2022-07-31T02:14:11.168Z,67367.72
2022-07-31T02:19:16.989Z,67387.66
2022-07-31T02:24:20.902Z,67374.22
2022-07-31T02:29:26.010Z,67382.28
2022-07-31T02:34:32.964Z,67399.00
2022-07-31T02:39:38.088Z,67326.03
2022-07-31T02:44:42.242Z,67355.72
2022-07-31T02:49:47.781Z,67340.19
2022-07-31T02:54:52.940Z,67356.81
2022-07-31T02:59:56.792Z,67326.53
2022-07-31T03:05:03.476Z,67332.56
2022-07-31T03:10:07.658Z,67332.56
2022-07-31T03:15:21.588Z,67240.16
2022-07-31T03:20:27.818Z,67244.03
2022-07-31T03:25:33.858Z,67222.38
2022-07-31T03:30:38.367Z,67207.34
2022-07-31T03:35:44.682Z,67130.56
2022-07-31T03:40:49.808Z,67052.72
2022-07-31T03:45:54.618Z,66998.94
2022-07-31T03:51:00.295Z,67028.66
2022-07-31T03:56:07.611Z,67057.72
2022-07-31T04:01:12.248Z,67036.06
2022-07-31T04:06:17.815Z,67015.03
2022-07-31T04:11:21.478Z,67031.28
2022-07-31T04:16:25.391Z,67010.88
2022-07-31T04:21:30.670Z,67000.56
2022-07-31T04:26:34.608Z,66980.75
2022-07-31T04:31:39.311Z,67007.03
2022-07-31T04:36:47.021Z,67031.28
2022-07-31T04:41:51.966Z,67008.19
2022-07-31T04:46:59.537Z,67016.28
2022-07-31T04:52:06.173Z,67023.19
2022-07-31T04:57:10.397Z,66981.31
2022-07-31T05:02:14.033Z,67057.34
2022-07-31T05:07:19.125Z,67024.34
2022-07-31T05:12:22.928Z,67075.00
2022-07-31T05:17:27.144Z,67080.47
2022-07-31T05:22:58.426Z,67106.97
2022-07-31T05:28:29.968Z,67084.75
2022-07-31T05:33:35.035Z,67063.06
2022-07-31T05:38:40.324Z,67082.75
2022-07-31T05:44:02.888Z,67105.88
2022-07-31T05:49:29.069Z,67131.16
2022-07-31T05:54:37.590Z,67055.25
2022-07-31T06:00:16.342Z,67084.84
2022-07-31T06:05:22.275Z,67046.94
2022-07-31T06:10:30.821Z,67014.56
2022-07-31T06:15:36.781Z,67069.59
2022-07-31T06:20:41.190Z,67082.69
2022-07-31T06:25:46.596Z,67028.66
2022-07-31T06:30:56.020Z,67050.72
2022-07-31T06:35:59.850Z,67071.28
2022-07-31T06:41:50.660Z,67157.22
2022-07-31T06:47:18.599Z,67192.72
2022-07-31T06:52:41.728Z,67163.56
2022-07-31T06:57:46.862Z,67151.56
2022-07-31T07:02:50.618Z,67174.91
2022-07-31T07:07:54.489Z,67135.50
2022-07-31T07:12:59.636Z,67203.03
2022-07-31T07:18:07.048Z,67177.59
2022-07-31T07:23:36.967Z,67113.84
2022-07-31T07:28:54.071Z,67135.03
2022-07-31T07:33:57.975Z,67162.00
2022-07-31T07:39:03.375Z,67184.63
2022-07-31T07:44:10.524Z,67131.31
2022-07-31T07:49:15.179Z,67195.34
2022-07-31T07:54:25.904Z,67277.06
2022-07-31T07:59:49.506Z,67310.97
2022-07-31T08:05:19.506Z,67194.38
2022-07-31T08:10:23.321Z,67192.78
2022-07-31T08:15:32.673Z,67196.47
2022-07-31T08:20:38.186Z,67219.75
2022-07-31T08:25:42.609Z,67255.97
2022-07-31T08:30:47.908Z,67145.81
2022-07-31T08:35:54.054Z,67186.81
2022-07-31T08:40:58.137Z,67262.44
2022-07-31T08:46:06.106Z,67290.44
2022-07-31T08:51:14.102Z,67239.75
2022-07-31T08:56:36.451Z,67194.13
2022-07-31T09:01:41.610Z,67266.06
2022-07-31T09:06:45.476Z,67170.66
2022-07-31T09:11:54.221Z,67085.44
2022-07-31T09:17:18.063Z,67097.72
2022-07-31T09:22:23.196Z,67185.16
2022-07-31T09:27:29.789Z,67282.34
2022-07-31T09:32:35.337Z,67307.22
2022-07-31T09:37:48.940Z,67352.53
2022-07-31T09:43:04.996Z,67337.94
2022-07-31T09:48:16.139Z,67111.28
2022-07-31T09:53:43.389Z,67071.81
2022-07-31T09:59:11.724Z,67126.84
2022-07-31T10:04:19.175Z,67232.53
2022-07-31T10:09:25.976Z,67157.56
2022-07-31T10:14:45.105Z,67096.16
2022-07-31T10:19:55.429Z,67112.88
2022-07-31T10:25:23.019Z,67103.09
2022-07-31T10:30:28.628Z,67124.22
2022-07-31T10:35:44.612Z,67113.97
2022-07-31T10:46:28.611Z,67127.47
2022-07-31T10:51:53.791Z,67141.50
2022-07-31T10:57:24.923Z,67152.34
2022-07-31T11:02:49.324Z,67272.09
2022-07-31T11:08:03.161Z,67396.91
2022-07-31T11:13:33.703Z,67345.03
2022-07-31T11:19:07.149Z,67217.53
2022-07-31T11:24:15.564Z,67141.97
2022-07-31T11:30:00.319Z,67190.00
2022-07-31T11:34:57.625Z,67216.41
2022-07-31T11:40:02.018Z,67351.53
2022-07-31T11:45:12.556Z,67283.44
2022-07-31T11:50:18.707Z,67189.53
2022-07-31T11:55:22.768Z,67116.19
2022-07-31T12:00:30.242Z,67176.66
2022-07-31T12:05:45.361Z,67182.47
2022-07-31T12:10:49.750Z,67105.25
2022-07-31T12:15:58.749Z,67157.56
2022-07-31T12:21:06.170Z,67232.66
2022-07-31T12:26:13.309Z,67286.75
2022-07-31T12:31:17.438Z,67156.16
2022-07-31T12:36:23.075Z,67142.03
2022-07-31T12:41:26.840Z,67138.28
2022-07-31T12:46:37.393Z,67185.75
2022-07-31T12:51:45.230Z,67269.44
2022-07-31T12:56:52.562Z,67207.97
2022-07-31T13:01:56.842Z,67285.66
2022-07-31T13:07:05.840Z,67273.69
2022-07-31T13:12:10.803Z,67205.13
2022-07-31T13:17:14.720Z,67168.50
2022-07-31T13:22:19.888Z,67126.97
2022-07-31T13:27:23.840Z,67158.69
2022-07-31T13:32:28.058Z,67172.81
2022-07-31T13:37:33.231Z,67128.53
2022-07-31T13:42:37.081Z,67163.63
2022-07-31T13:47:51.504Z,67142.59
2022-07-31T13:52:58.746Z,67079.38
2022-07-31T13:58:02.754Z,67122.47
2022-07-31T14:03:06.694Z,67152.22
2022-07-31T14:08:32.888Z,67124.09
2022-07-31T14:13:42.356Z,67149.59
2022-07-31T14:18:46.700Z,67170.09
2022-07-31T14:23:52.718Z,67041.16
2022-07-31T14:28:56.564Z,67085.31
2022-07-31T14:34:00.428Z,67073.50
2022-07-31T14:39:05.900Z,67047.63
2022-07-31T14:44:09.760Z,67030.28
2022-07-31T14:49:13.625Z,67042.16
2022-07-31T14:54:19.107Z,67013.66
2022-07-31T14:59:23.136Z,67038.94
2022-07-31T15:04:27.284Z,67054.66
2022-07-31T15:09:33.021Z,67056.19
2022-07-31T15:14:36.744Z,67001.78
2022-07-31T15:19:41.408Z,66957.19
2022-07-31T15:24:49.006Z,66950.50
2022-07-31T15:30:05.553Z,66949.97
2022-07-31T15:35:14.845Z,66958.59
2022-07-31T15:40:22.929Z,66952.72
2022-07-31T15:45:26.852Z,67005.56
2022-07-31T15:50:30.988Z,66965.66
2022-07-31T15:55:36.429Z,66939.19
2022-07-31T16:00:40.742Z,67002.19
2022-07-31T16:05:44.881Z,66970.00
2022-07-31T16:11:02.373Z,67003.31
2022-07-31T16:16:07.226Z,66972.06
2022-07-31T16:21:11.188Z,66968.28
2022-07-31T16:26:16.313Z,66946.25
2022-07-31T16:31:29.971Z,66970.44
2022-07-31T16:36:34.539Z,66910.09
2022-07-31T16:41:54.734Z,66955.97
2022-07-31T16:46:59.061Z,66894.59
2022-07-31T16:52:02.816Z,66956.44
2022-07-31T16:57:09.325Z,66944.59
2022-07-31T17:02:16.701Z,66945.66
2022-07-31T17:07:20.603Z,66961.34
2022-07-31T17:12:26.295Z,66986.16
2022-07-31T17:17:29.736Z,67011.94
2022-07-31T17:22:38.064Z,66985.13
2022-07-31T17:27:45.233Z,66918.78
2022-07-31T17:32:48.917Z,66876.66
2022-07-31T17:37:52.688Z,66904.22
2022-07-31T17:42:57.922Z,66895.13
2022-07-31T17:48:04.386Z,66833.59
2022-07-31T17:53:08.232Z,66870.81
2022-07-31T17:58:14.952Z,66817.97
2022-07-31T18:03:18.539Z,66798.66
2022-07-31T18:08:22.171Z,66770.03
2022-07-31T18:13:27.295Z,66772.19
2022-07-31T18:18:31.059Z,66749.75
2022-07-31T18:23:34.868Z,66773.28
2022-07-31T18:28:43.124Z,66760.34
2022-07-31T18:33:47.303Z,66786.19
2022-07-31T18:38:52.254Z,66799.59
2022-07-31T18:43:58.245Z,66822.22
2022-07-31T18:49:02.295Z,66813.75
2022-07-31T18:54:06.321Z,66813.03
2022-07-31T18:59:11.601Z,66828.88
2022-07-31T19:04:15.513Z,66851.38
2022-07-31T19:09:19.794Z,66893.44
2022-07-31T19:14:25.142Z,66898.22
2022-07-31T19:19:44.991Z,66838.97
2022-07-31T19:24:53.113Z,66839.06
2022-07-31T19:29:58.358Z,66849.41
2022-07-31T19:35:02.278Z,66851.97
2022-07-31T19:40:08.785Z,66898.84
2022-07-31T19:45:14.015Z,66851.97
2022-07-31T19:50:17.774Z,66897.69
2022-07-31T19:55:25.368Z,66916.06
2022-07-31T20:00:30.610Z,66932.25
2022-07-31T20:05:34.371Z,66894.91
2022-07-31T20:10:39.060Z,66840.66
2022-07-31T20:15:52.383Z,66890.81
2022-07-31T20:20:57.551Z,66865.91
2022-07-31T20:26:01.955Z,66843.28
2022-07-31T20:31:07.204Z,66826.19
2022-07-31T20:36:20.099Z,66873.44
2022-07-31T20:41:23.902Z,66849.81
2022-07-31T20:46:28.941Z,66839.13
2022-07-31T20:51:32.789Z,66829.91
2022-07-31T20:56:36.513Z,66867.50
2022-07-31T21:01:42.115Z,66841.75
2022-07-31T21:06:46.116Z,66842.22
2022-07-31T21:11:50.816Z,66904.22
2022-07-31T21:16:55.911Z,66868.66
2022-07-31T21:21:59.627Z,66872.44
2022-07-31T21:27:04.493Z,66810.50
2022-07-31T21:32:10.835Z,66785.66
2022-07-31T21:37:16.295Z,66768.50
2022-07-31T21:42:20.450Z,66789.44
2022-07-31T21:47:27.172Z,66780.34
2022-07-31T21:52:51.286Z,66799.19
2022-07-31T21:57:57.151Z,66765.28
2022-07-31T22:03:05.909Z,66752.44
2022-07-31T22:08:09.766Z,66774.97
2022-07-31T22:13:13.445Z,66839.53
2022-07-31T22:18:19.272Z,66775.44
2022-07-31T22:23:23.395Z,66759.34
2022-07-31T22:28:28.269Z,66788.50
2022-07-31T22:33:33.618Z,66825.50
2022-07-31T22:38:38.168Z,66787.88
2022-07-31T22:44:09.943Z,66789.13
2022-07-31T22:49:09.062Z,66780.34
2022-07-31T22:54:12.731Z,66809.41
2022-07-31T22:59:16.505Z,66777.13
2022-07-31T23:04:21.501Z,66771.72
2022-07-31T23:09:25.282Z,66837.97
2022-07-31T23:14:30.049Z,66799.13
2022-07-31T23:19:35.259Z,66792.19
2022-07-31T23:24:38.927Z,66801.34
2022-07-31T23:29:42.686Z,66802.34
2022-07-31T23:34:47.879Z,66792.66
2022-07-31T23:39:51.574Z,66788.50
2022-07-31T23:44:55.408Z,66768.97
2022-07-31T23:50:03.721Z,66759.88
2022-07-31T23:55:07.782Z,66762.50
